sensor_id;sensor_type;location;lat;lon;timestamp;pressure;altitude;pressure_sealevel;temperature
69597;BMP180;56802;51.184;-115.558;2022-09-27T00:01:25;86710.20;;;22.20
69597;BMP180;56802;51.184;-115.558;2022-09-27T00:03:56;86703.20;;;22.30
69597;BMP180;56802;51.184;-115.558;2022-09-27T00:06:29;86702.60;;;22.44
69597;BMP180;56802;51.184;-115.558;2022-09-27T00:08:59;86699.80;;;22.60
69597;BMP180;56802;51.184;-115.558;2022-09-27T00:11:38;86696.00;;;22.70
69597;BMP180;56802;51.184;-115.558;2022-09-27T00:14:11;86691.20;;;22.72
69597;BMP180;56802;51.184;-115.558;2022-09-27T00:16:43;86688.60;;;22.80
69597;BMP180;56802;51.184;-115.558;2022-09-27T00:19:16;86689.80;;;22.90
69597;BMP180;56802;51.184;-115.558;2022-09-27T00:21:47;86691.80;;;22.90
69597;BMP180;56802;51.184;-115.558;2022-09-27T00:24:21;86689.60;;;22.98
69597;BMP180;56802;51.184;-115.558;2022-09-27T00:26:50;86683.60;;;23.00
69597;BMP180;56802;51.184;-115.558;2022-09-27T00:29:20;86682.60;;;23.00
69597;BMP180;56802;51.184;-115.558;2022-09-27T00:31:49;86679.80;;;23.00
69597;BMP180;56802;51.184;-115.558;2022-09-27T00:34:23;86680.60;;;23.00
69597;BMP180;56802;51.184;-115.558;2022-09-27T00:36:53;86682.20;;;22.90
69597;BMP180;56802;51.184;-115.558;2022-09-27T00:39:25;86682.40;;;22.80
69597;BMP180;56802;51.184;-115.558;2022-09-27T00:41:54;86689.20;;;22.70
69597;BMP180;56802;51.184;-115.558;2022-09-27T00:47:30;86688.00;;;22.48
69597;BMP180;56802;51.184;-115.558;2022-09-27T00:50:33;86684.80;;;22.30
69597;BMP180;56802;51.184;-115.558;2022-09-27T00:53:14;86682.00;;;22.10
69597;BMP180;56802;51.184;-115.558;2022-09-27T00:55:58;86685.80;;;21.90
69597;BMP180;56802;51.184;-115.558;2022-09-27T00:58:37;86690.20;;;21.78
69597;BMP180;56802;51.184;-115.558;2022-09-27T01:01:08;86683.60;;;21.60
69597;BMP180;56802;51.184;-115.558;2022-09-27T01:04:07;86683.20;;;21.40
69597;BMP180;56802;51.184;-115.558;2022-09-27T01:06:37;86681.80;;;21.26
69597;BMP180;56802;51.184;-115.558;2022-09-27T01:09:09;86686.20;;;21.10
69597;BMP180;56802;51.184;-115.558;2022-09-27T01:12:12;86689.00;;;20.96
69597;BMP180;56802;51.184;-115.558;2022-09-27T01:15:28;86685.20;;;20.70
69597;BMP180;56802;51.184;-115.558;2022-09-27T01:21:59;86686.60;;;20.20
69597;BMP180;56802;51.184;-115.558;2022-09-27T01:30:29;86689.00;;;19.72
69597;BMP180;56802;51.184;-115.558;2022-09-27T01:33:23;86689.00;;;19.60
69597;BMP180;56802;51.184;-115.558;2022-09-27T01:39:19;86690.60;;;19.40
69597;BMP180;56802;51.184;-115.558;2022-09-27T01:42:19;86689.40;;;19.26
69597;BMP180;56802;51.184;-115.558;2022-09-27T01:45:08;86691.80;;;19.10
69597;BMP180;56802;51.184;-115.558;2022-09-27T01:47:58;86701.80;;;18.92
69597;BMP180;56802;51.184;-115.558;2022-09-27T01:50:41;86697.60;;;18.80
69597;BMP180;56802;51.184;-115.558;2022-09-27T01:53:20;86696.20;;;18.70
69597;BMP180;56802;51.184;-115.558;2022-09-27T01:55:54;86701.80;;;18.60
69597;BMP180;56802;51.184;-115.558;2022-09-27T01:58:45;86704.40;;;18.48
69597;BMP180;56802;51.184;-115.558;2022-09-27T02:01:21;86703.20;;;18.30
69597;BMP180;56802;51.184;-115.558;2022-09-27T02:03:52;86710.80;;;18.20
69597;BMP180;56802;51.184;-115.558;2022-09-27T02:06:42;86705.40;;;18.04
69597;BMP180;56802;51.184;-115.558;2022-09-27T02:09:31;86709.00;;;18.00
69597;BMP180;56802;51.184;-115.558;2022-09-27T02:12:07;86710.80;;;17.86
69597;BMP180;56802;51.184;-115.558;2022-09-27T02:15:13;86716.80;;;17.74
69597;BMP180;56802;51.184;-115.558;2022-09-27T02:18:01;86721.00;;;17.60
69597;BMP180;56802;51.184;-115.558;2022-09-27T02:20:45;86720.20;;;17.50
69597;BMP180;56802;51.184;-115.558;2022-09-27T02:23:42;86724.20;;;17.30
69597;BMP180;56802;51.184;-115.558;2022-09-27T02:26:28;86726.00;;;17.30
69597;BMP180;56802;51.184;-115.558;2022-09-27T02:29:21;86727.00;;;17.20
69597;BMP180;56802;51.184;-115.558;2022-09-27T02:31:51;86724.00;;;17.10
69597;BMP180;56802;51.184;-115.558;2022-09-27T02:34:29;86727.60;;;17.04
69597;BMP180;56802;51.184;-115.558;2022-09-27T02:36:59;86726.80;;;17.00
69597;BMP180;56802;51.184;-115.558;2022-09-27T02:39:30;86731.80;;;16.96
69597;BMP180;56802;51.184;-115.558;2022-09-27T02:41:59;86735.60;;;16.90
69597;BMP180;56802;51.184;-115.558;2022-09-27T02:44:29;86734.20;;;16.90
69597;BMP180;56802;51.184;-115.558;2022-09-27T02:56:18;86736.00;;;16.40
69597;BMP180;56802;51.184;-115.558;2022-09-27T03:02:25;86741.40;;;16.20
69597;BMP180;56802;51.184;-115.558;2022-09-27T03:05:05;86747.20;;;16.10
69597;BMP180;56802;51.184;-115.558;2022-09-27T03:07:36;86744.40;;;16.10
69597;BMP180;56802;51.184;-115.558;2022-09-27T03:10:16;86746.60;;;16.10
69597;BMP180;56802;51.184;-115.558;2022-09-27T03:12:46;86745.80;;;16.00
69597;BMP180;56802;51.184;-115.558;2022-09-27T03:15:16;86749.40;;;16.00
69597;BMP180;56802;51.184;-115.558;2022-09-27T03:17:46;86752.60;;;15.90
69597;BMP180;56802;51.184;-115.558;2022-09-27T03:20:15;86750.40;;;15.80
69597;BMP180;56802;51.184;-115.558;2022-09-27T03:22:46;86758.60;;;15.70
69597;BMP180;56802;51.184;-115.558;2022-09-27T03:25:15;86760.40;;;15.60
69597;BMP180;56802;51.184;-115.558;2022-09-27T03:27:45;86757.80;;;15.54
69597;BMP180;56802;51.184;-115.558;2022-09-27T03:30:14;86758.60;;;15.50
69597;BMP180;56802;51.184;-115.558;2022-09-27T03:32:45;86753.00;;;15.50
69597;BMP180;56802;51.184;-115.558;2022-09-27T03:35:14;86756.40;;;15.40
69597;BMP180;56802;51.184;-115.558;2022-09-27T03:37:44;86756.60;;;15.32
69597;BMP180;56802;51.184;-115.558;2022-09-27T03:40:14;86757.60;;;15.30
69597;BMP180;56802;51.184;-115.558;2022-09-27T03:42:50;86754.40;;;15.20
69597;BMP180;56802;51.184;-115.558;2022-09-27T03:45:20;86755.20;;;15.10
69597;BMP180;56802;51.184;-115.558;2022-09-27T03:47:50;86754.80;;;14.90
69597;BMP180;56802;51.184;-115.558;2022-09-27T03:50:20;86755.60;;;14.84
69597;BMP180;56802;51.184;-115.558;2022-09-27T03:52:50;86753.60;;;14.80
69597;BMP180;56802;51.184;-115.558;2022-09-27T03:55:19;86757.60;;;14.72
69597;BMP180;56802;51.184;-115.558;2022-09-27T03:57:48;86757.60;;;14.70
69597;BMP180;56802;51.184;-115.558;2022-09-27T04:00:18;86751.40;;;14.60
69597;BMP180;56802;51.184;-115.558;2022-09-27T04:02:48;86755.80;;;14.50
69597;BMP180;56802;51.184;-115.558;2022-09-27T04:05:18;86755.20;;;14.50
69597;BMP180;56802;51.184;-115.558;2022-09-27T04:07:50;86754.80;;;14.40
69597;BMP180;56802;51.184;-115.558;2022-09-27T04:10:20;86756.80;;;14.30
69597;BMP180;56802;51.184;-115.558;2022-09-27T04:12:49;86752.60;;;14.20
69597;BMP180;56802;51.184;-115.558;2022-09-27T04:15:19;86753.40;;;14.20
69597;BMP180;56802;51.184;-115.558;2022-09-27T04:17:49;86751.20;;;14.12
69597;BMP180;56802;51.184;-115.558;2022-09-27T04:20:19;86741.80;;;14.10
69597;BMP180;56802;51.184;-115.558;2022-09-27T04:22:49;86743.00;;;14.10
69597;BMP180;56802;51.184;-115.558;2022-09-27T04:25:19;86744.60;;;14.00
69597;BMP180;56802;51.184;-115.558;2022-09-27T04:27:48;86745.80;;;14.00
69597;BMP180;56802;51.184;-115.558;2022-09-27T04:30:23;86749.60;;;13.90
69597;BMP180;56802;51.184;-115.558;2022-09-27T04:32:54;86744.00;;;13.80
69597;BMP180;56802;51.184;-115.558;2022-09-27T04:35:24;86747.60;;;13.78
69597;BMP180;56802;51.184;-115.558;2022-09-27T04:38:11;86743.00;;;13.70
69597;BMP180;56802;51.184;-115.558;2022-09-27T04:40:41;86745.20;;;13.60
69597;BMP180;56802;51.184;-115.558;2022-09-27T04:43:12;86750.80;;;13.60
69597;BMP180;56802;51.184;-115.558;2022-09-27T04:45:43;86749.00;;;13.58
69597;BMP180;56802;51.184;-115.558;2022-09-27T04:48:13;86749.80;;;13.50
69597;BMP180;56802;51.184;-115.558;2022-09-27T04:50:42;86745.80;;;13.50
69597;BMP180;56802;51.184;-115.558;2022-09-27T04:53:15;86744.00;;;13.50
69597;BMP180;56802;51.184;-115.558;2022-09-27T04:55:46;86740.60;;;13.50
69597;BMP180;56802;51.184;-115.558;2022-09-27T04:58:17;86745.00;;;13.50
69597;BMP180;56802;51.184;-115.558;2022-09-27T05:00:47;86746.20;;;13.50
69597;BMP180;56802;51.184;-115.558;2022-09-27T05:03:20;86747.60;;;13.50
69597;BMP180;56802;51.184;-115.558;2022-09-27T05:05:49;86744.40;;;13.50
69597;BMP180;56802;51.184;-115.558;2022-09-27T05:08:19;86741.20;;;13.50
69597;BMP180;56802;51.184;-115.558;2022-09-27T05:10:48;86740.80;;;13.50
69597;BMP180;56802;51.184;-115.558;2022-09-27T05:13:18;86740.00;;;13.50
69597;BMP180;56802;51.184;-115.558;2022-09-27T05:15:48;86741.60;;;13.50
69597;BMP180;56802;51.184;-115.558;2022-09-27T05:18:17;86737.20;;;13.50
69597;BMP180;56802;51.184;-115.558;2022-09-27T05:20:47;86741.40;;;13.56
69597;BMP180;56802;51.184;-115.558;2022-09-27T05:23:16;86742.40;;;13.60
69597;BMP180;56802;51.184;-115.558;2022-09-27T05:25:45;86743.60;;;13.60
69597;BMP180;56802;51.184;-115.558;2022-09-27T05:28:14;86742.00;;;13.60
69597;BMP180;56802;51.184;-115.558;2022-09-27T05:30:44;86741.20;;;13.60
69597;BMP180;56802;51.184;-115.558;2022-09-27T05:33:13;86742.40;;;13.60
69597;BMP180;56802;51.184;-115.558;2022-09-27T05:35:42;86739.00;;;13.64
69597;BMP180;56802;51.184;-115.558;2022-09-27T05:38:12;86740.60;;;13.68
69597;BMP180;56802;51.184;-115.558;2022-09-27T05:40:42;86746.20;;;13.60
69597;BMP180;56802;51.184;-115.558;2022-09-27T05:43:13;86749.60;;;13.60
69597;BMP180;56802;51.184;-115.558;2022-09-27T05:45:43;86752.20;;;13.60
69597;BMP180;56802;51.184;-115.558;2022-09-27T05:48:13;86752.80;;;13.60
69597;BMP180;56802;51.184;-115.558;2022-09-27T05:50:43;86744.40;;;13.62
69597;BMP180;56802;51.184;-115.558;2022-09-27T05:53:12;86747.80;;;13.60
69597;BMP180;56802;51.184;-115.558;2022-09-27T05:55:42;86744.20;;;13.60
69597;BMP180;56802;51.184;-115.558;2022-09-27T05:58:11;86750.80;;;13.60
69597;BMP180;56802;51.184;-115.558;2022-09-27T06:00:44;86744.80;;;13.60
69597;BMP180;56802;51.184;-115.558;2022-09-27T06:03:13;86746.60;;;13.60
69597;BMP180;56802;51.184;-115.558;2022-09-27T06:05:42;86742.40;;;13.60
69597;BMP180;56802;51.184;-115.558;2022-09-27T06:08:18;86738.80;;;13.60
69597;BMP180;56802;51.184;-115.558;2022-09-27T06:10:49;86741.20;;;13.58
69597;BMP180;56802;51.184;-115.558;2022-09-27T06:13:20;86747.80;;;13.50
69597;BMP180;56802;51.184;-115.558;2022-09-27T06:15:52;86749.20;;;13.40
69597;BMP180;56802;51.184;-115.558;2022-09-27T06:18:21;86748.60;;;13.26
69597;BMP180;56802;51.184;-115.558;2022-09-27T06:20:51;86746.00;;;13.20
69597;BMP180;56802;51.184;-115.558;2022-09-27T06:23:22;86744.40;;;13.10
69597;BMP180;56802;51.184;-115.558;2022-09-27T06:25:53;86740.80;;;13.00
69597;BMP180;56802;51.184;-115.558;2022-09-27T06:28:22;86740.80;;;12.90
69597;BMP180;56802;51.184;-115.558;2022-09-27T06:30:51;86744.60;;;12.90
69597;BMP180;56802;51.184;-115.558;2022-09-27T06:33:21;86747.00;;;12.80
69597;BMP180;56802;51.184;-115.558;2022-09-27T06:35:50;86742.20;;;12.80
69597;BMP180;56802;51.184;-115.558;2022-09-27T06:38:21;86741.40;;;12.70
69597;BMP180;56802;51.184;-115.558;2022-09-27T06:40:50;86747.00;;;12.70
69597;BMP180;56802;51.184;-115.558;2022-09-27T06:43:20;86748.00;;;12.70
69597;BMP180;56802;51.184;-115.558;2022-09-27T06:45:50;86742.00;;;12.62
69597;BMP180;56802;51.184;-115.558;2022-09-27T06:48:20;86743.40;;;12.60
69597;BMP180;56802;51.184;-115.558;2022-09-27T06:50:50;86740.60;;;12.60
69597;BMP180;56802;51.184;-115.558;2022-09-27T06:53:19;86738.00;;;12.60
69597;BMP180;56802;51.184;-115.558;2022-09-27T06:55:48;86740.60;;;12.60
69597;BMP180;56802;51.184;-115.558;2022-09-27T06:58:18;86739.40;;;12.60
69597;BMP180;56802;51.184;-115.558;2022-09-27T07:01:06;86737.40;;;12.60
69597;BMP180;56802;51.184;-115.558;2022-09-27T07:03:35;86734.20;;;12.60
69597;BMP180;56802;51.184;-115.558;2022-09-27T07:06:24;86734.20;;;12.60
69597;BMP180;56802;51.184;-115.558;2022-09-27T07:08:54;86732.00;;;12.60
69597;BMP180;56802;51.184;-115.558;2022-09-27T07:11:23;86729.20;;;12.60
69597;BMP180;56802;51.184;-115.558;2022-09-27T07:13:53;86725.00;;;12.60
69597;BMP180;56802;51.184;-115.558;2022-09-27T07:16:24;86731.80;;;12.60
69597;BMP180;56802;51.184;-115.558;2022-09-27T07:18:53;86732.20;;;12.60
69597;BMP180;56802;51.184;-115.558;2022-09-27T07:21:23;86730.60;;;12.60
69597;BMP180;56802;51.184;-115.558;2022-09-27T07:23:52;86733.20;;;12.60
69597;BMP180;56802;51.184;-115.558;2022-09-27T07:26:22;86730.20;;;12.60
69597;BMP180;56802;51.184;-115.558;2022-09-27T07:28:51;86729.40;;;12.56
69597;BMP180;56802;51.184;-115.558;2022-09-27T07:31:21;86724.40;;;12.60
69597;BMP180;56802;51.184;-115.558;2022-09-27T07:33:51;86726.80;;;12.60
69597;BMP180;56802;51.184;-115.558;2022-09-27T07:36:21;86726.00;;;12.60
69597;BMP180;56802;51.184;-115.558;2022-09-27T07:38:51;86726.20;;;12.60
69597;BMP180;56802;51.184;-115.558;2022-09-27T07:41:20;86725.40;;;12.60
69597;BMP180;56802;51.184;-115.558;2022-09-27T07:43:50;86724.20;;;12.60
69597;BMP180;56802;51.184;-115.558;2022-09-27T07:46:19;86730.00;;;12.60
69597;BMP180;56802;51.184;-115.558;2022-09-27T07:48:51;86730.20;;;12.60
69597;BMP180;56802;51.184;-115.558;2022-09-27T07:51:20;86728.40;;;12.60
69597;BMP180;56802;51.184;-115.558;2022-09-27T07:53:50;86727.60;;;12.56
69597;BMP180;56802;51.184;-115.558;2022-09-27T07:56:20;86733.00;;;12.52
69597;BMP180;56802;51.184;-115.558;2022-09-27T07:58:49;86740.60;;;12.50
69597;BMP180;56802;51.184;-115.558;2022-09-27T08:01:18;86741.00;;;12.50
69597;BMP180;56802;51.184;-115.558;2022-09-27T08:03:48;86740.80;;;12.50
69597;BMP180;56802;51.184;-115.558;2022-09-27T08:06:18;86734.00;;;12.50
69597;BMP180;56802;51.184;-115.558;2022-09-27T08:08:47;86738.40;;;12.50
69597;BMP180;56802;51.184;-115.558;2022-09-27T08:11:18;86729.60;;;12.60
69597;BMP180;56802;51.184;-115.558;2022-09-27T08:13:47;86731.00;;;12.60
69597;BMP180;56802;51.184;-115.558;2022-09-27T08:16:20;86732.00;;;12.60
69597;BMP180;56802;51.184;-115.558;2022-09-27T08:18:49;86732.00;;;12.70
69597;BMP180;56802;51.184;-115.558;2022-09-27T08:21:19;86735.00;;;12.70
69597;BMP180;56802;51.184;-115.558;2022-09-27T08:23:48;86741.20;;;12.70
69597;BMP180;56802;51.184;-115.558;2022-09-27T08:26:18;86737.20;;;12.70
69597;BMP180;56802;51.184;-115.558;2022-09-27T08:28:48;86743.20;;;12.70
69597;BMP180;56802;51.184;-115.558;2022-09-27T08:31:17;86743.00;;;12.60
69597;BMP180;56802;51.184;-115.558;2022-09-27T08:33:50;86743.40;;;12.52
69597;BMP180;56802;51.184;-115.558;2022-09-27T08:36:20;86739.80;;;12.50
69597;BMP180;56802;51.184;-115.558;2022-09-27T08:38:51;86740.80;;;12.40
69597;BMP180;56802;51.184;-115.558;2022-09-27T08:47:15;86757.20;;;12.30
69597;BMP180;56802;51.184;-115.558;2022-09-27T08:52:51;86753.20;;;12.20
69597;BMP180;56802;51.184;-115.558;2022-09-27T08:55:56;86757.00;;;12.20
69597;BMP180;56802;51.184;-115.558;2022-09-27T08:58:31;86760.20;;;12.10
69597;BMP180;56802;51.184;-115.558;2022-09-27T09:01:05;86754.80;;;12.10
69597;BMP180;56802;51.184;-115.558;2022-09-27T09:03:47;86751.80;;;12.02
69597;BMP180;56802;51.184;-115.558;2022-09-27T09:06:32;86755.20;;;12.00
69597;BMP180;56802;51.184;-115.558;2022-09-27T09:09:26;86751.00;;;12.00
69597;BMP180;56802;51.184;-115.558;2022-09-27T09:12:26;86749.80;;;11.96
69597;BMP180;56802;51.184;-115.558;2022-09-27T09:15:53;86742.40;;;11.90
69597;BMP180;56802;51.184;-115.558;2022-09-27T09:33:30;86735.60;;;11.80
69597;BMP180;56802;51.184;-115.558;2022-09-27T09:39:21;86737.60;;;11.70
69597;BMP180;56802;51.184;-115.558;2022-09-27T09:41:57;86733.40;;;11.70
69597;BMP180;56802;51.184;-115.558;2022-09-27T09:45:21;86724.80;;;11.70
69597;BMP180;56802;51.184;-115.558;2022-09-27T09:53:42;86733.60;;;11.60
69597;BMP180;56802;51.184;-115.558;2022-09-27T09:58:59;86728.40;;;11.50
69597;BMP180;56802;51.184;-115.558;2022-09-27T10:01:46;86732.20;;;11.40
69597;BMP180;56802;51.184;-115.558;2022-09-27T10:04:27;86734.80;;;11.40
69597;BMP180;56802;51.184;-115.558;2022-09-27T10:06:58;86737.40;;;11.40
69597;BMP180;56802;51.184;-115.558;2022-09-27T10:09:28;86741.40;;;11.40
69597;BMP180;56802;51.184;-115.558;2022-09-27T10:11:58;86740.80;;;11.40
69597;BMP180;56802;51.184;-115.558;2022-09-27T10:14:28;86744.00;;;11.30
69597;BMP180;56802;51.184;-115.558;2022-09-27T10:17:02;86738.20;;;11.30
69597;BMP180;56802;51.184;-115.558;2022-09-27T10:19:35;86737.80;;;11.30
69597;BMP180;56802;51.184;-115.558;2022-09-27T10:25:00;86736.20;;;11.20
69597;BMP180;56802;51.184;-115.558;2022-09-27T10:27:45;86736.00;;;11.20
69597;BMP180;56802;51.184;-115.558;2022-09-27T10:30:32;86736.80;;;11.18
69597;BMP180;56802;51.184;-115.558;2022-09-27T10:33:17;86734.40;;;11.12
69597;BMP180;56802;51.184;-115.558;2022-09-27T10:35:48;86729.40;;;11.10
69597;BMP180;56802;51.184;-115.558;2022-09-27T10:38:20;86725.60;;;11.10
69597;BMP180;56802;51.184;-115.558;2022-09-27T10:40:55;86733.00;;;11.10
69597;BMP180;56802;51.184;-115.558;2022-09-27T10:43:31;86729.20;;;11.10
69597;BMP180;56802;51.184;-115.558;2022-09-27T10:52:07;86736.40;;;11.00
69597;BMP180;56802;51.184;-115.558;2022-09-27T10:54:39;86726.80;;;10.96
69597;BMP180;56802;51.184;-115.558;2022-09-27T10:57:23;86731.80;;;10.90
69597;BMP180;56802;51.184;-115.558;2022-09-27T11:00:29;86723.80;;;10.84
69597;BMP180;56802;51.184;-115.558;2022-09-27T11:03:03;86723.40;;;10.80
69597;BMP180;56802;51.184;-115.558;2022-09-27T11:05:38;86722.80;;;10.80
69597;BMP180;56802;51.184;-115.558;2022-09-27T11:08:23;86725.00;;;10.72
69597;BMP180;56802;51.184;-115.558;2022-09-27T11:11:22;86726.80;;;10.70
69597;BMP180;56802;51.184;-115.558;2022-09-27T11:14:01;86726.40;;;10.70
69597;BMP180;56802;51.184;-115.558;2022-09-27T11:19:57;86739.60;;;10.68
69597;BMP180;56802;51.184;-115.558;2022-09-27T11:23:15;86740.00;;;10.60
69597;BMP180;56802;51.184;-115.558;2022-09-27T11:26:29;86742.80;;;10.60
69597;BMP180;56802;51.184;-115.558;2022-09-27T11:29:21;86745.00;;;10.50
69597;BMP180;56802;51.184;-115.558;2022-09-27T11:32:07;86736.40;;;10.50
69597;BMP180;56802;51.184;-115.558;2022-09-27T11:35:19;86735.60;;;10.40
69597;BMP180;56802;51.184;-115.558;2022-09-27T11:41:49;86740.00;;;10.40
69597;BMP180;56802;51.184;-115.558;2022-09-27T11:48:12;86744.20;;;10.30
69597;BMP180;56802;51.184;-115.558;2022-09-27T11:51:00;86751.00;;;10.20
69597;BMP180;56802;51.184;-115.558;2022-09-27T11:57:08;86746.40;;;10.18
69597;BMP180;56802;51.184;-115.558;2022-09-27T12:05:56;86750.40;;;10.10
69597;BMP180;56802;51.184;-115.558;2022-09-27T12:17:32;86755.80;;;9.80
69597;BMP180;56802;51.184;-115.558;2022-09-27T12:20:19;86760.20;;;9.80
69597;BMP180;56802;51.184;-115.558;2022-09-27T12:23:27;86752.40;;;9.70
69597;BMP180;56802;51.184;-115.558;2022-09-27T12:26:10;86756.60;;;9.62
69597;BMP180;56802;51.184;-115.558;2022-09-27T12:28:59;86749.20;;;9.60
69597;BMP180;56802;51.184;-115.558;2022-09-27T12:34:24;86755.80;;;9.70
69597;BMP180;56802;51.184;-115.558;2022-09-27T12:37:39;86761.40;;;9.70
69597;BMP180;56802;51.184;-115.558;2022-09-27T12:40:31;86759.00;;;9.62
69597;BMP180;56802;51.184;-115.558;2022-09-27T12:43:22;86756.60;;;9.66
69597;BMP180;56802;51.184;-115.558;2022-09-27T12:51:22;86764.40;;;9.60
69597;BMP180;56802;51.184;-115.558;2022-09-27T13:03:20;86763.40;;;9.50
69597;BMP180;56802;51.184;-115.558;2022-09-27T13:12:12;86755.60;;;9.42
69597;BMP180;56802;51.184;-115.558;2022-09-27T13:20:41;86760.00;;;9.40
69597;BMP180;56802;51.184;-115.558;2022-09-27T13:25:56;86764.40;;;9.30
69597;BMP180;56802;51.184;-115.558;2022-09-27T13:31:11;86760.60;;;9.20
69597;BMP180;56802;51.184;-115.558;2022-09-27T13:33:52;86760.60;;;9.20
69597;BMP180;56802;51.184;-115.558;2022-09-27T13:36:29;86759.40;;;9.20
69597;BMP180;56802;51.184;-115.558;2022-09-27T13:39:01;86759.60;;;9.20
69597;BMP180;56802;51.184;-115.558;2022-09-27T13:55:43;86763.00;;;9.50
69597;BMP180;56802;51.184;-115.558;2022-09-27T13:58:43;86764.40;;;9.50
69597;BMP180;56802;51.184;-115.558;2022-09-27T14:01:30;86765.60;;;9.50
69597;BMP180;56802;51.184;-115.558;2022-09-27T14:04:58;86770.60;;;9.40
69597;BMP180;56802;51.184;-115.558;2022-09-27T14:07:04;86767.80;;;9.40
69597;BMP180;56802;51.184;-115.558;2022-09-27T14:09:38;86767.00;;;9.30
69597;BMP180;56802;51.184;-115.558;2022-09-27T14:12:31;86765.20;;;9.30
69597;BMP180;56802;51.184;-115.558;2022-09-27T14:15:03;86767.80;;;9.30
69597;BMP180;56802;51.184;-115.558;2022-09-27T14:17:33;86767.00;;;9.30
69597;BMP180;56802;51.184;-115.558;2022-09-27T14:20:02;86770.40;;;9.30
69597;BMP180;56802;51.184;-115.558;2022-09-27T14:22:35;86770.00;;;9.30
69597;BMP180;56802;51.184;-115.558;2022-09-27T14:25:17;86768.40;;;9.26
69597;BMP180;56802;51.184;-115.558;2022-09-27T14:27:47;86768.40;;;9.24
69597;BMP180;56802;51.184;-115.558;2022-09-27T14:30:20;86767.40;;;9.20
69597;BMP180;56802;51.184;-115.558;2022-09-27T14:32:54;86767.00;;;9.20
69597;BMP180;56802;51.184;-115.558;2022-09-27T14:35:29;86768.80;;;9.20
69597;BMP180;56802;51.184;-115.558;2022-09-27T14:38:20;86770.80;;;9.16
69597;BMP180;56802;51.184;-115.558;2022-09-27T14:41:07;86768.00;;;9.10
69597;BMP180;56802;51.184;-115.558;2022-09-27T14:43:44;86777.20;;;9.10
69597;BMP180;56802;51.184;-115.558;2022-09-27T14:46:30;86768.40;;;9.10
69597;BMP180;56802;51.184;-115.558;2022-09-27T14:49:21;86770.60;;;9.10
69597;BMP180;56802;51.184;-115.558;2022-09-27T14:51:53;86772.60;;;9.10
69597;BMP180;56802;51.184;-115.558;2022-09-27T14:54:26;86773.60;;;9.12
69597;BMP180;56802;51.184;-115.558;2022-09-27T14:56:58;86770.20;;;9.20
69597;BMP180;56802;51.184;-115.558;2022-09-27T14:59:34;86775.20;;;9.20
69597;BMP180;56802;51.184;-115.558;2022-09-27T15:02:19;86770.60;;;9.20
69597;BMP180;56802;51.184;-115.558;2022-09-27T15:04:50;86769.00;;;9.20
69597;BMP180;56802;51.184;-115.558;2022-09-27T15:07:20;86771.20;;;9.20
69597;BMP180;56802;51.184;-115.558;2022-09-27T15:09:49;86765.20;;;9.20
69597;BMP180;56802;51.184;-115.558;2022-09-27T15:12:24;86760.80;;;9.30
69597;BMP180;56802;51.184;-115.558;2022-09-27T15:14:54;86764.00;;;9.30
69597;BMP180;56802;51.184;-115.558;2022-09-27T15:17:25;86766.60;;;9.40
69597;BMP180;56802;51.184;-115.558;2022-09-27T15:20:22;86766.40;;;9.44
69597;BMP180;56802;51.184;-115.558;2022-09-27T15:22:52;86765.60;;;9.50
69597;BMP180;56802;51.184;-115.558;2022-09-27T15:25:38;86759.40;;;9.60
69597;BMP180;56802;51.184;-115.558;2022-09-27T15:28:16;86760.40;;;9.60
69597;BMP180;56802;51.184;-115.558;2022-09-27T15:31:05;86760.40;;;9.66
69597;BMP180;56802;51.184;-115.558;2022-09-27T15:33:35;86756.40;;;9.70
69597;BMP180;56802;51.184;-115.558;2022-09-27T15:36:08;86756.20;;;9.72
69597;BMP180;56802;51.184;-115.558;2022-09-27T15:38:46;86756.00;;;9.80
69597;BMP180;56802;51.184;-115.558;2022-09-27T15:41:16;86758.40;;;9.86
69597;BMP180;56802;51.184;-115.558;2022-09-27T15:43:51;86753.00;;;9.90
69597;BMP180;56802;51.184;-115.558;2022-09-27T15:46:37;86753.60;;;10.00
69597;BMP180;56802;51.184;-115.558;2022-09-27T15:49:27;86748.00;;;10.10
69597;BMP180;56802;51.184;-115.558;2022-09-27T15:52:02;86751.60;;;10.20
69597;BMP180;56802;51.184;-115.558;2022-09-27T15:54:32;86747.00;;;10.30
69597;BMP180;56802;51.184;-115.558;2022-09-27T15:57:05;86746.60;;;10.40
69597;BMP180;56802;51.184;-115.558;2022-09-27T15:59:37;86747.40;;;10.50
69597;BMP180;56802;51.184;-115.558;2022-09-27T16:02:15;86748.60;;;10.66
69597;BMP180;56802;51.184;-115.558;2022-09-27T16:04:46;86747.40;;;10.80
69597;BMP180;56802;51.184;-115.558;2022-09-27T16:07:17;86750.00;;;10.90
69597;BMP180;56802;51.184;-115.558;2022-09-27T16:09:46;86746.80;;;11.00
69597;BMP180;56802;51.184;-115.558;2022-09-27T16:12:18;86750.00;;;11.12
69597;BMP180;56802;51.184;-115.558;2022-09-27T16:14:46;86747.20;;;11.22
69597;BMP180;56802;51.184;-115.558;2022-09-27T16:17:15;86752.80;;;11.36
69597;BMP180;56802;51.184;-115.558;2022-09-27T16:19:44;86745.20;;;11.50
69597;BMP180;56802;51.184;-115.558;2022-09-27T16:22:14;86748.00;;;11.60
69597;BMP180;56802;51.184;-115.558;2022-09-27T16:24:42;86747.60;;;11.70
69597;BMP180;56802;51.184;-115.558;2022-09-27T16:27:11;86750.00;;;11.80
69597;BMP180;56802;51.184;-115.558;2022-09-27T16:29:42;86742.20;;;11.90
69597;BMP180;56802;51.184;-115.558;2022-09-27T16:32:11;86743.80;;;12.00
69597;BMP180;56802;51.184;-115.558;2022-09-27T16:34:39;86739.80;;;12.10
69597;BMP180;56802;51.184;-115.558;2022-09-27T16:37:08;86734.20;;;12.18
69597;BMP180;56802;51.184;-115.558;2022-09-27T16:39:37;86736.40;;;12.22
69597;BMP180;56802;51.184;-115.558;2022-09-27T16:42:10;86732.80;;;12.30
69597;BMP180;56802;51.184;-115.558;2022-09-27T16:44:39;86733.20;;;12.38
69597;BMP180;56802;51.184;-115.558;2022-09-27T16:47:08;86733.80;;;12.40
69597;BMP180;56802;51.184;-115.558;2022-09-27T16:49:37;86734.40;;;12.50
69597;BMP180;56802;51.184;-115.558;2022-09-27T16:52:25;86730.80;;;12.60
69597;BMP180;56802;51.184;-115.558;2022-09-27T16:54:54;86727.40;;;12.70